sensor_id;sensor_type;location;lat;lon;timestamp;pressure;altitude;pressure_sealevel;temperature;humidity
42111;BME280;27766;52.174;5.456;2023-10-31T00:01:20;99485.28;;;9.91;100.00
42111;BME280;27766;52.174;5.456;2023-10-31T00:03:48;99487.84;;;9.97;100.00
42111;BME280;27766;52.174;5.456;2023-10-31T00:06:15;99483.56;;;9.85;100.00
42111;BME280;27766;52.174;5.456;2023-10-31T00:08:42;99489.56;;;9.98;100.00
42111;BME280;27766;52.174;5.456;2023-10-31T00:11:09;99484.41;;;9.98;100.00
42111;BME280;27766;52.174;5.456;2023-10-31T00:13:37;99489.56;;;9.95;100.00
42111;BME280;27766;52.174;5.456;2023-10-31T00:16:04;99490.44;;;9.83;100.00
42111;BME280;27766;52.174;5.456;2023-10-31T00:18:34;99489.59;;;9.82;100.00
42111;BME280;27766;52.174;5.456;2023-10-31T00:21:01;99484.41;;;9.78;100.00
42111;BME280;27766;52.174;5.456;2023-10-31T00:23:28;99489.56;;;9.75;100.00
42111;BME280;27766;52.174;5.456;2023-10-31T00:25:55;99487.88;;;9.75;100.00
42111;BME280;27766;52.174;5.456;2023-10-31T00:28:23;99493.03;;;9.86;100.00
42111;BME280;27766;52.174;5.456;2023-10-31T00:30:50;99493.03;;;9.95;100.00
42111;BME280;27766;52.174;5.456;2023-10-31T00:33:18;99503.34;;;10.06;100.00
42111;BME280;27766;52.174;5.456;2023-10-31T00:35:45;99511.09;;;10.03;100.00
42111;BME280;27766;52.174;5.456;2023-10-31T00:38:12;99519.72;;;10.04;100.00
42111;BME280;27766;52.174;5.456;2023-10-31T00:40:39;99517.97;;;10.12;100.00
42111;BME280;27766;52.174;5.456;2023-10-31T00:43:06;99511.09;;;10.11;100.00
42111;BME280;27766;52.174;5.456;2023-10-31T00:45:34;99509.38;;;10.10;100.00
42111;BME280;27766;52.174;5.456;2023-10-31T00:48:01;99506.78;;;10.13;100.00
42111;BME280;27766;52.174;5.456;2023-10-31T00:50:28;99508.50;;;10.09;100.00
42111;BME280;27766;52.174;5.456;2023-10-31T00:52:56;99501.59;;;10.13;100.00
42111;BME280;27766;52.174;5.456;2023-10-31T00:55:23;99507.66;;;10.10;100.00
42111;BME280;27766;52.174;5.456;2023-10-31T00:57:50;99519.69;;;10.08;100.00
42111;BME280;27766;52.174;5.456;2023-10-31T01:00:18;99511.97;;;10.11;100.00
42111;BME280;27766;52.174;5.456;2023-10-31T01:02:45;99516.25;;;10.17;100.00
42111;BME280;27766;52.174;5.456;2023-10-31T01:05:13;99524.84;;;10.19;100.00
42111;BME280;27766;52.174;5.456;2023-10-31T01:07:40;99524.00;;;10.20;100.00
42111;BME280;27766;52.174;5.456;2023-10-31T01:10:07;99533.50;;;10.23;100.00
42111;BME280;27766;52.174;5.456;2023-10-31T01:12:35;99536.09;;;10.23;100.00
42111;BME280;27766;52.174;5.456;2023-10-31T01:15:02;99530.91;;;10.29;100.00
42111;BME280;27766;52.174;5.456;2023-10-31T01:17:29;99542.06;;;10.36;100.00
42111;BME280;27766;52.174;5.456;2023-10-31T01:19:57;99545.56;;;10.42;100.00
42111;BME280;27766;52.174;5.456;2023-10-31T01:22:24;99541.25;;;10.38;100.00
42111;BME280;27766;52.174;5.456;2023-10-31T01:24:51;99541.22;;;10.51;100.00
42111;BME280;27766;52.174;5.456;2023-10-31T01:27:19;99542.94;;;10.53;100.00
42111;BME280;27766;52.174;5.456;2023-10-31T01:29:46;99550.69;;;10.50;100.00
42111;BME280;27766;52.174;5.456;2023-10-31T01:32:13;99557.59;;;10.47;100.00
42111;BME280;27766;52.174;5.456;2023-10-31T01:34:48;99555.03;;;10.29;100.00
42111;BME280;27766;52.174;5.456;2023-10-31T01:37:16;99558.50;;;10.38;100.00
42111;BME280;27766;52.174;5.456;2023-10-31T01:39:46;99560.22;;;10.42;100.00
42111;BME280;27766;52.174;5.456;2023-10-31T01:42:14;99562.78;;;10.34;100.00
42111;BME280;27766;52.174;5.456;2023-10-31T01:44:42;99564.53;;;10.23;100.00
42111;BME280;27766;52.174;5.456;2023-10-31T01:47:09;99573.13;;;10.31;100.00
42111;BME280;27766;52.174;5.456;2023-10-31T01:49:37;99574.88;;;10.24;100.00
42111;BME280;27766;52.174;5.456;2023-10-31T01:52:05;99571.41;;;10.24;100.00
42111;BME280;27766;52.174;5.456;2023-10-31T01:54:33;99570.53;;;10.34;100.00
42111;BME280;27766;52.174;5.456;2023-10-31T01:57:02;99572.28;;;10.30;100.00
42111;BME280;27766;52.174;5.456;2023-10-31T01:59:30;99577.44;;;10.35;100.00
42111;BME280;27766;52.174;5.456;2023-10-31T02:01:58;99557.63;;;10.28;100.00
42111;BME280;27766;52.174;5.456;2023-10-31T02:04:27;99574.00;;;10.42;100.00
42111;BME280;27766;52.174;5.456;2023-10-31T02:06:54;99573.16;;;10.37;100.00
42111;BME280;27766;52.174;5.456;2023-10-31T02:09:21;99567.97;;;10.29;100.00
42111;BME280;27766;52.174;5.456;2023-10-31T02:11:51;99571.44;;;10.41;100.00
42111;BME280;27766;52.174;5.456;2023-10-31T02:14:19;99569.69;;;10.34;100.00
42111;BME280;27766;52.174;5.456;2023-10-31T02:16:46;99575.75;;;10.43;100.00
42111;BME280;27766;52.174;5.456;2023-10-31T02:19:14;99569.66;;;10.54;100.00
42111;BME280;27766;52.174;5.456;2023-10-31T02:21:44;99562.78;;;10.53;100.00
42111;BME280;27766;52.174;5.456;2023-10-31T02:24:11;99574.81;;;10.63;100.00
42111;BME280;27766;52.174;5.456;2023-10-31T02:26:38;99569.66;;;10.61;100.00
42111;BME280;27766;52.174;5.456;2023-10-31T02:29:06;99568.81;;;10.63;100.00
42111;BME280;27766;52.174;5.456;2023-10-31T02:31:34;99565.34;;;10.65;100.00
42111;BME280;27766;52.174;5.456;2023-10-31T02:34:01;99573.09;;;10.65;100.00
42111;BME280;27766;52.174;5.456;2023-10-31T02:36:28;99573.09;;;10.65;100.00
42111;BME280;27766;52.174;5.456;2023-10-31T02:38:55;99569.66;;;10.71;100.00
42111;BME280;27766;52.174;5.456;2023-10-31T02:41:22;99578.25;;;10.67;100.00
42111;BME280;27766;52.174;5.456;2023-10-31T02:43:50;99577.38;;;10.69;100.00
42111;BME280;27766;52.174;5.456;2023-10-31T02:46:17;99580.03;;;10.49;100.00
42111;BME280;27766;52.174;5.456;2023-10-31T02:48:46;99586.03;;;10.62;100.00
42111;BME280;27766;52.174;5.456;2023-10-31T02:51:13;99592.97;;;10.57;100.00
42111;BME280;27766;52.174;5.456;2023-10-31T02:53:40;99586.91;;;10.58;100.00
42111;BME280;27766;52.174;5.456;2023-10-31T02:56:07;99585.19;;;10.63;100.00
42111;BME280;27766;52.174;5.456;2023-10-31T02:58:35;99582.59;;;10.58;100.00
42111;BME280;27766;52.174;5.456;2023-10-31T03:01:02;99594.69;;;10.55;100.00
42111;BME280;27766;52.174;5.456;2023-10-31T03:03:29;99596.44;;;10.53;100.00
42111;BME280;27766;52.174;5.456;2023-10-31T03:05:56;99601.59;;;10.53;100.00
42111;BME280;27766;52.174;5.456;2023-10-31T03:08:24;99595.53;;;10.63;100.00
42111;BME280;27766;52.174;5.456;2023-10-31T03:10:51;99605.91;;;10.65;100.00
42111;BME280;27766;52.174;5.456;2023-10-31T03:13:19;99601.56;;;10.67;100.00
42111;BME280;27766;52.174;5.456;2023-10-31T03:15:46;99611.94;;;10.68;100.00
42111;BME280;27766;52.174;5.456;2023-10-31T03:18:15;99617.09;;;10.59;100.00
42111;BME280;27766;52.174;5.456;2023-10-31T03:20:45;99612.78;;;10.64;100.00
42111;BME280;27766;52.174;5.456;2023-10-31T03:23:13;99618.81;;;10.75;100.00
42111;BME280;27766;52.174;5.456;2023-10-31T03:25:40;99631.75;;;10.71;100.00
42111;BME280;27766;52.174;5.456;2023-10-31T03:28:18;99631.75;;;10.72;100.00
42111;BME280;27766;52.174;5.456;2023-10-31T03:30:49;99644.66;;;10.79;100.00
42111;BME280;27766;52.174;5.456;2023-10-31T03:33:16;99639.50;;;10.77;100.00
42111;BME280;27766;52.174;5.456;2023-10-31T03:35:44;99643.81;;;10.78;100.00
42111;BME280;27766;52.174;5.456;2023-10-31T03:38:11;99654.16;;;10.80;100.00
42111;BME280;27766;52.174;5.456;2023-10-31T03:40:38;99654.16;;;10.73;100.00
42111;BME280;27766;52.174;5.456;2023-10-31T03:43:06;99657.63;;;10.71;100.00
42111;BME280;27766;52.174;5.456;2023-10-31T03:45:33;99661.91;;;10.80;100.00
42111;BME280;27766;52.174;5.456;2023-10-31T03:48:00;99667.09;;;10.80;100.00
42111;BME280;27766;52.174;5.456;2023-10-31T03:50:27;99680.06;;;10.76;100.00
42111;BME280;27766;52.174;5.456;2023-10-31T03:52:54;99676.59;;;10.79;100.00
42111;BME280;27766;52.174;5.456;2023-10-31T03:55:21;99684.38;;;10.84;100.00
42111;BME280;27766;52.174;5.456;2023-10-31T03:57:49;99692.13;;;10.85;100.00
42111;BME280;27766;52.174;5.456;2023-10-31T04:00:16;99694.69;;;10.93;100.00
42111;BME280;27766;52.174;5.456;2023-10-31T04:02:43;99693.81;;;11.02;100.00
42111;BME280;27766;52.174;5.456;2023-10-31T04:05:11;99694.59;;;11.24;100.00
42111;BME280;27766;52.174;5.456;2023-10-31T04:07:38;99694.63;;;11.26;100.00
42111;BME280;27766;52.174;5.456;2023-10-31T04:10:05;99693.75;;;11.30;100.00
42111;BME280;27766;52.174;5.456;2023-10-31T04:12:33;99702.38;;;11.32;100.00
42111;BME280;27766;52.174;5.456;2023-10-31T04:15:01;99707.56;;;11.19;100.00
42111;BME280;27766;52.174;5.456;2023-10-31T04:17:28;99701.53;;;11.19;100.00
42111;BME280;27766;52.174;5.456;2023-10-31T04:19:55;99705.84;;;11.17;100.00
42111;BME280;27766;52.174;5.456;2023-10-31T04:22:22;99711.91;;;11.16;100.00
42111;BME280;27766;52.174;5.456;2023-10-31T04:24:50;99718.78;;;11.23;100.00
42111;BME280;27766;52.174;5.456;2023-10-31T04:27:17;99716.19;;;11.31;100.00
42111;BME280;27766;52.174;5.456;2023-10-31T04:29:44;99719.66;;;11.33;100.00
42111;BME280;27766;52.174;5.456;2023-10-31T04:32:12;99721.38;;;11.28;100.00
42111;BME280;27766;52.174;5.456;2023-10-31T04:34:39;99718.75;;;11.32;100.00
42111;BME280;27766;52.174;5.456;2023-10-31T04:37:06;99730.03;;;11.22;100.00
42111;BME280;27766;52.174;5.456;2023-10-31T04:39:33;99717.97;;;11.10;100.00
42111;BME280;27766;52.174;5.456;2023-10-31T04:42:00;99731.75;;;11.12;100.00
42111;BME280;27766;52.174;5.456;2023-10-31T04:44:28;99724.88;;;11.08;100.00
42111;BME280;27766;52.174;5.456;2023-10-31T04:46:55;99730.06;;;11.03;100.00
42111;BME280;27766;52.174;5.456;2023-10-31T04:49:22;99728.31;;;11.16;100.00
42111;BME280;27766;52.174;5.456;2023-10-31T04:51:49;99729.19;;;11.11;100.00
42111;BME280;27766;52.174;5.456;2023-10-31T04:54:16;99729.16;;;11.17;100.00
42111;BME280;27766;52.174;5.456;2023-10-31T04:56:44;99734.34;;;11.20;100.00
42111;BME280;27766;52.174;5.456;2023-10-31T04:59:11;99730.00;;;11.30;100.00
42111;BME280;27766;52.174;5.456;2023-10-31T05:01:38;99734.34;;;11.17;100.00
42111;BME280;27766;52.174;5.456;2023-10-31T05:04:06;99730.03;;;11.11;100.00
42111;BME280;27766;52.174;5.456;2023-10-31T05:06:39;99740.38;;;11.11;100.00
42111;BME280;27766;52.174;5.456;2023-10-31T05:09:06;99738.66;;;11.22;100.00
42111;BME280;27766;52.174;5.456;2023-10-31T05:11:34;99742.13;;;11.17;100.00
42111;BME280;27766;52.174;5.456;2023-10-31T05:14:02;99744.69;;;11.23;100.00
42111;BME280;27766;52.174;5.456;2023-10-31T05:16:29;99746.38;;;11.30;100.00
42111;BME280;27766;52.174;5.456;2023-10-31T05:18:56;99751.59;;;11.18;100.00
42111;BME280;27766;52.174;5.456;2023-10-31T05:21:26;99754.22;;;11.10;100.00
42111;BME280;27766;52.174;5.456;2023-10-31T05:23:54;99751.63;;;11.12;100.00
42111;BME280;27766;52.174;5.456;2023-10-31T05:26:21;99753.38;;;11.06;100.00
42111;BME280;27766;52.174;5.456;2023-10-31T05:28:48;99755.94;;;11.14;100.00
42111;BME280;27766;52.174;5.456;2023-10-31T05:31:16;99759.38;;;11.08;100.00
42111;BME280;27766;52.174;5.456;2023-10-31T05:33:44;99755.06;;;11.20;100.00
42111;BME280;27766;52.174;5.456;2023-10-31T05:36:22;99765.41;;;11.17;100.00
42111;BME280;27766;52.174;5.456;2023-10-31T05:38:49;99773.22;;;11.18;100.00
42111;BME280;27766;52.174;5.456;2023-10-31T05:41:17;99780.13;;;10.90;100.00
42111;BME280;27766;52.174;5.456;2023-10-31T05:43:44;99787.03;;;11.03;100.00
42111;BME280;27766;52.174;5.456;2023-10-31T05:46:11;99787.91;;;10.99;100.00
42111;BME280;27766;52.174;5.456;2023-10-31T05:48:43;99787.00;;;10.89;100.00
42111;BME280;27766;52.174;5.456;2023-10-31T05:51:14;99787.03;;;10.94;100.00
42111;BME280;27766;52.174;5.456;2023-10-31T05:53:47;99791.34;;;10.93;100.00
42111;BME280;27766;52.174;5.456;2023-10-31T05:56:15;99790.47;;;11.02;100.00
42111;BME280;27766;52.174;5.456;2023-10-31T05:58:42;99789.63;;;11.03;100.00
42111;BME280;27766;52.174;5.456;2023-10-31T06:01:10;99796.50;;;11.01;100.00
42111;BME280;27766;52.174;5.456;2023-10-31T06:03:37;99797.38;;;11.09;100.00
42111;BME280;27766;52.174;5.456;2023-10-31T06:06:07;99796.50;;;11.17;100.00
42111;BME280;27766;52.174;5.456;2023-10-31T06:08:35;99807.72;;;11.05;100.00
42111;BME280;27766;52.174;5.456;2023-10-31T06:11:03;99802.56;;;11.03;100.00
42111;BME280;27766;52.174;5.456;2023-10-31T06:13:30;99805.16;;;11.06;100.00
42111;BME280;27766;52.174;5.456;2023-10-31T06:16:00;99816.38;;;10.91;100.00
42111;BME280;27766;52.174;5.456;2023-10-31T06:18:28;99814.66;;;10.98;100.00
42111;BME280;27766;52.174;5.456;2023-10-31T06:20:56;99814.66;;;11.04;100.00
42111;BME280;27766;52.174;5.456;2023-10-31T06:23:23;99818.06;;;11.16;100.00
42111;BME280;27766;52.174;5.456;2023-10-31T06:25:50;99812.03;;;11.11;100.00
42111;BME280;27766;52.174;5.456;2023-10-31T06:28:17;99812.06;;;11.14;100.00
42111;BME280;27766;52.174;5.456;2023-10-31T06:30:45;99820.69;;;11.03;100.00
42111;BME280;27766;52.174;5.456;2023-10-31T06:33:12;99826.72;;;11.10;100.00
42111;BME280;27766;52.174;5.456;2023-10-31T06:35:40;99827.56;;;11.07;100.00
42111;BME280;27766;52.174;5.456;2023-10-31T06:38:07;99824.97;;;11.12;100.00
42111;BME280;27766;52.174;5.456;2023-10-31T06:40:34;99836.22;;;11.09;100.00
42111;BME280;27766;52.174;5.456;2023-10-31T06:43:02;99838.81;;;10.92;100.00
42111;BME280;27766;52.174;5.456;2023-10-31T06:45:29;99837.06;;;11.02;100.00
42111;BME280;27766;52.174;5.456;2023-10-31T06:47:56;99841.41;;;10.97;100.00
42111;BME280;27766;52.174;5.456;2023-10-31T06:50:24;99846.56;;;11.00;100.00
42111;BME280;27766;52.174;5.456;2023-10-31T06:52:51;99853.47;;;10.95;100.00
42111;BME280;27766;52.174;5.456;2023-10-31T06:55:19;99850.88;;;11.01;100.00
42111;BME280;27766;52.174;5.456;2023-10-31T06:57:46;99850.88;;;11.01;100.00
42111;BME280;27766;52.174;5.456;2023-10-31T07:00:14;99849.19;;;11.06;100.00
42111;BME280;27766;52.174;5.456;2023-10-31T07:02:41;99856.94;;;11.06;100.00
42111;BME280;27766;52.174;5.456;2023-10-31T07:05:08;99863.84;;;11.00;100.00
42111;BME280;27766;52.174;5.456;2023-10-31T07:07:36;99868.16;;;11.05;100.00
42111;BME280;27766;52.174;5.456;2023-10-31T07:10:03;99868.13;;;11.04;100.00
42111;BME280;27766;52.174;5.456;2023-10-31T07:12:31;99870.75;;;11.02;100.00
42111;BME280;27766;52.174;5.456;2023-10-31T07:14:59;99878.50;;;11.02;100.00
42111;BME280;27766;52.174;5.456;2023-10-31T07:17:26;99873.34;;;11.05;100.00
42111;BME280;27766;52.174;5.456;2023-10-31T07:19:53;99878.50;;;11.02;100.00
42111;BME280;27766;52.174;5.456;2023-10-31T07:22:21;99884.53;;;11.12;100.00
42111;BME280;27766;52.174;5.456;2023-10-31T07:24:50;99877.63;;;11.16;100.00
42111;BME280;27766;52.174;5.456;2023-10-31T07:27:21;99884.56;;;11.24;100.00
42111;BME280;27766;52.174;5.456;2023-10-31T07:29:48;99881.13;;;11.21;100.00
42111;BME280;27766;52.174;5.456;2023-10-31T07:32:16;99896.66;;;11.21;100.00
42111;BME280;27766;52.174;5.456;2023-10-31T07:34:44;99895.78;;;11.17;100.00
42111;BME280;27766;52.174;5.456;2023-10-31T07:37:12;99894.06;;;11.32;100.00
42111;BME280;27766;52.174;5.456;2023-10-31T07:39:40;99895.78;;;11.28;100.00
42111;BME280;27766;52.174;5.456;2023-10-31T07:42:07;99896.66;;;11.27;100.00
42111;BME280;27766;52.174;5.456;2023-10-31T07:44:34;99899.25;;;11.36;100.00
42111;BME280;27766;52.174;5.456;2023-10-31T07:47:01;99900.09;;;11.43;100.00
42111;BME280;27766;52.174;5.456;2023-10-31T07:49:29;99907.88;;;11.43;100.00
42111;BME280;27766;52.174;5.456;2023-10-31T07:51:56;99890.59;;;11.54;100.00
42111;BME280;27766;52.174;5.456;2023-10-31T07:54:23;99907.00;;;11.58;100.00
42111;BME280;27766;52.174;5.456;2023-10-31T07:56:50;99903.53;;;11.51;100.00
42111;BME280;27766;52.174;5.456;2023-10-31T07:59:17;99908.72;;;11.57;100.00
42111;BME280;27766;52.174;5.456;2023-10-31T08:01:45;99916.50;;;11.51;100.00
42111;BME280;27766;52.174;5.456;2023-10-31T08:04:12;99914.78;;;11.60;100.00
42111;BME280;27766;52.174;5.456;2023-10-31T08:06:42;99913.91;;;11.62;100.00
42111;BME280;27766;52.174;5.456;2023-10-31T08:09:09;99919.94;;;11.66;100.00
42111;BME280;27766;52.174;5.456;2023-10-31T08:11:36;99921.69;;;11.70;100.00
42111;BME280;27766;52.174;5.456;2023-10-31T08:14:03;99923.38;;;11.74;100.00
42111;BME280;27766;52.174;5.456;2023-10-31T08:16:31;99912.13;;;11.86;100.00
42111;BME280;27766;52.174;5.456;2023-10-31T08:18:58;99924.22;;;11.92;100.00
42111;BME280;27766;52.174;5.456;2023-10-31T08:21:25;99923.38;;;11.99;100.00
42111;BME280;27766;52.174;5.456;2023-10-31T08:23:55;99920.81;;;12.02;100.00
42111;BME280;27766;52.174;5.456;2023-10-31T08:26:22;99919.84;;;12.18;100.00
42111;BME280;27766;52.174;5.456;2023-10-31T08:28:49;99922.50;;;11.92;100.00
42111;BME280;27766;52.174;5.456;2023-10-31T08:31:21;99929.44;;;11.90;100.00
42111;BME280;27766;52.174;5.456;2023-10-31T08:33:48;99928.56;;;11.86;100.00
42111;BME280;27766;52.174;5.456;2023-10-31T08:36:16;99932.03;;;11.90;100.00
42111;BME280;27766;52.174;5.456;2023-10-31T08:38:43;99940.66;;;11.95;100.00
42111;BME280;27766;52.174;5.456;2023-10-31T08:41:10;99941.53;;;11.82;100.00
42111;BME280;27766;52.174;5.456;2023-10-31T08:43:38;99944.97;;;11.93;100.00
42111;BME280;27766;52.174;5.456;2023-10-31T08:46:05;99946.72;;;11.93;100.00
42111;BME280;27766;52.174;5.456;2023-10-31T08:48:33;99950.16;;;12.02;100.00
42111;BME280;27766;52.174;5.456;2023-10-31T08:51:00;99945.00;;;11.98;100.00
42111;BME280;27766;52.174;5.456;2023-10-31T08:53:27;99955.34;;;12.12;100.00
42111;BME280;27766;52.174;5.456;2023-10-31T08:55:54;99959.66;;;12.19;100.00
42111;BME280;27766;52.174;5.456;2023-10-31T08:58:23;99961.38;;;12.20;100.00
42111;BME280;27766;52.174;5.456;2023-10-31T09:00:51;99967.44;;;12.22;100.00
42111;BME280;27766;52.174;5.456;2023-10-31T09:03:20;99970.84;;;12.33;100.00
42111;BME280;27766;52.174;5.456;2023-10-31T09:05:48;99975.19;;;12.30;100.00
42111;BME280;27766;52.174;5.456;2023-10-31T09:08:15;99976.03;;;12.38;100.00
42111;BME280;27766;52.174;5.456;2023-10-31T09:10:43;99984.66;;;12.39;100.00
42111;BME280;27766;52.174;5.456;2023-10-31T09:13:16;99986.41;;;12.37;100.00
42111;BME280;27766;52.174;5.456;2023-10-31T09:15:43;99999.41;;;12.37;100.00
42111;BME280;27766;52.174;5.456;2023-10-31T09:18:13;99990.69;;;12.50;100.00
42111;BME280;27766;52.174;5.456;2023-10-31T09:20:43;100000.25;;;12.45;100.00
42111;BME280;27766;52.174;5.456;2023-10-31T09:23:11;100002.78;;;12.54;100.00
42111;BME280;27766;52.174;5.456;2023-10-31T09:25:38;100001.88;;;12.69;100.00
42111;BME280;27766;52.174;5.456;2023-10-31T09:28:05;100002.78;;;12.60;100.00
42111;BME280;27766;52.174;5.456;2023-10-31T09:30:32;100007.06;;;12.61;100.00
42111;BME280;27766;52.174;5.456;2023-10-31T09:33:00;100008.72;;;12.86;100.00
42111;BME280;27766;52.174;5.456;2023-10-31T09:35:27;99995.78;;;12.79;100.00
42111;BME280;27766;52.174;5.456;2023-10-31T09:37:55;100006.03;;;13.03;100.00
42111;BME280;27766;52.174;5.456;2023-10-31T09:40:22;100009.47;;;13.09;100.00
42111;BME280;27766;52.174;5.456;2023-10-31T09:42:49;100015.50;;;13.16;100.00
42111;BME280;27766;52.174;5.456;2023-10-31T09:45:17;100016.28;;;13.29;100.00
42111;BME280;27766;52.174;5.456;2023-10-31T09:47:45;100017.09;;;13.34;100.00
42111;BME280;27766;52.174;5.456;2023-10-31T09:50:13;100023.13;;;13.47;100.00
42111;BME280;27766;52.174;5.456;2023-10-31T09:52:41;100027.25;;;13.76;100.00
42111;BME280;27766;52.174;5.456;2023-10-31T09:55:09;100032.59;;;13.54;100.00
42111;BME280;27766;52.174;5.456;2023-10-31T09:57:36;100037.75;;;13.64;100.00
42111;BME280;27766;52.174;5.456;2023-10-31T10:00:03;100040.28;;;13.70;100.00
42111;BME280;27766;52.174;5.456;2023-10-31T10:02:30;100051.53;;;13.75;100.00
42111;BME280;27766;52.174;5.456;2023-10-31T10:04:58;100052.41;;;13.75;100.00
42111;BME280;27766;52.174;5.456;2023-10-31T10:07:26;100051.44;;;13.87;100.00
42111;BME280;27766;52.174;5.456;2023-10-31T10:09:55;100061.78;;;13.93;100.00
42111;BME280;27766;52.174;5.456;2023-10-31T10:12:23;100054.78;;;14.05;100.00
42111;BME280;27766;52.174;5.456;2023-10-31T10:14:50;100061.63;;;14.12;100.00
42111;BME280;27766;52.174;5.456;2023-10-31T10:17:21;100061.38;;;14.40;100.00
42111;BME280;27766;52.174;5.456;2023-10-31T10:20:11;100065.63;;;14.47;100.00
42111;BME280;27766;52.174;5.456;2023-10-31T10:22:39;100072.66;;;14.40;100.00
42111;BME280;27766;52.174;5.456;2023-10-31T10:25:17;100065.78;;;14.32;100.00
42111;BME280;27766;52.174;5.456;2023-10-31T10:27:48;100070.19;;;14.23;100.00
42111;BME280;27766;52.174;5.456;2023-10-31T10:30:15;100066.72;;;14.28;100.00
42111;BME280;27766;52.174;5.456;2023-10-31T10:32:43;100071.69;;;14.49;100.00
42111;BME280;27766;52.174;5.456;2023-10-31T10:35:11;100069.88;;;14.54;100.00
42111;BME280;27766;52.174;5.456;2023-10-31T10:37:39;100065.72;;;14.39;100.00
42111;BME280;27766;52.174;5.456;2023-10-31T10:40:08;100070.13;;;14.33;100.00
42111;BME280;27766;52.174;5.456;2023-10-31T10:42:45;100057.78;;;14.49;100.00
42111;BME280;27766;52.174;5.456;2023-10-31T10:45:14;100063.72;;;14.66;100.00
42111;BME280;27766;52.174;5.456;2023-10-31T10:47:47;100074.09;;;14.71;100.00
42111;BME280;27766;52.174;5.456;2023-10-31T10:50:18;100072.38;;;14.68;100.00
42111;BME280;27766;52.174;5.456;2023-10-31T10:55:44;100079.34;;;14.65;100.00
42111;BME280;27766;52.174;5.456;2023-10-31T10:59:14;100083.75;;;14.56;100.00
42111;BME280;27766;52.174;5.456;2023-10-31T11:01:13;100078.44;;;14.72;100.00
42111;BME280;27766;52.174;5.456;2023-10-31T11:03:41;100070.38;;;14.91;100.00
42111;BME280;27766;52.174;5.456;2023-10-31T11:06:09;100078.06;;;15.03;100.00
42111;BME280;27766;52.174;5.456;2023-10-31T11:08:36;100078.00;;;15.06;100.00
42111;BME280;27766;52.174;5.456;2023-10-31T11:11:05;100072.69;;;15.15;100.00
42111;BME280;27766;52.174;5.456;2023-10-31T11:13:32;100076.84;;;15.29;100.00
42111;BME280;27766;52.174;5.456;2023-10-31T11:16:06;100081.22;;;15.28;100.00
42111;BME280;27766;52.174;5.456;2023-10-31T11:18:36;100080.31;;;15.32;100.00
42111;BME280;27766;52.174;5.456;2023-10-31T11:21:03;100082.22;;;15.16;100.00
42111;BME280;27766;52.174;5.456;2023-10-31T11:23:31;100083.09;;;15.18;100.00
42111;BME280;27766;52.174;5.456;2023-10-31T11:25:58;100083.91;;;15.22;100.00
42111;BME280;27766;52.174;5.456;2023-10-31T11:28:25;100086.38;;;15.33;100.00
42111;BME280;27766;52.174;5.456;2023-10-31T11:30:53;100085.56;;;15.28;100.00
42111;BME280;27766;52.174;5.456;2023-10-31T11:33:26;100090.97;;;15.11;100.00
42111;BME280;27766;52.174;5.456;2023-10-31T11:36:03;100092.69;;;15.15;100.00
42111;BME280;27766;52.174;5.456;2023-10-31T11:38:34;100090.03;;;15.16;100.00
42111;BME280;27766;52.174;5.456;2023-10-31T11:41:03;100099.34;;;15.38;100.00
42111;BME280;27766;52.174;5.456;2023-10-31T11:46:20;100101.91;;;15.39;100.00
42111;BME280;27766;52.174;5.456;2023-10-31T11:48:53;100102.06;;;15.28;100.00
42111;BME280;27766;52.174;5.456;2023-10-31T11:51:23;100103.75;;;15.32;100.00
42111;BME280;27766;52.174;5.456;2023-10-31T11:53:51;100104.81;;;15.17;100.00
42111;BME280;27766;52.174;5.456;2023-10-31T11:56:21;100095.31;;;15.13;100.00
42111;BME280;27766;52.174;5.456;2023-10-31T11:59:03;100098.75;;;15.15;100.00
42111;BME280;27766;52.174;5.456;2023-10-31T12:01:31;100107.31;;;15.27;100.00
42111;BME280;27766;52.174;5.456;2023-10-31T12:03:58;100106.38;;;15.31;100.00
42111;BME280;27766;52.174;5.456;2023-10-31T12:06:26;100106.44;;;15.26;100.00
42111;BME280;27766;52.174;5.456;2023-10-31T12:08:53;100102.03;;;15.30;100.00
42111;BME280;27766;52.174;5.456;2023-10-31T12:11:25;100116.22;;;15.07;100.00
42111;BME280;27766;52.174;5.456;2023-10-31T12:13:57;100114.91;;;14.69;100.00
42111;BME280;27766;52.174;5.456;2023-10-31T12:16:29;100126.97;;;14.76;100.00
42111;BME280;27766;52.174;5.456;2023-10-31T12:18:59;100120.72;;;14.93;100.00
42111;BME280;27766;52.174;5.456;2023-10-31T12:21:40;100124.34;;;14.79;100.00
42111;BME280;27766;52.174;5.456;2023-10-31T12:24:12;100132.88;;;14.94;100.00
42111;BME280;27766;52.174;5.456;2023-10-31T12:26:40;100131.31;;;14.79;100.00
42111;BME280;27766;52.174;5.456;2023-10-31T12:31:39;100137.56;;;14.57;100.00
42111;BME280;27766;52.174;5.456;2023-10-31T12:34:06;100139.44;;;14.45;100.00
42111;BME280;27766;52.174;5.456;2023-10-31T12:36:35;100148.97;;;14.43;100.00
42111;BME280;27766;52.174;5.456;2023-10-31T12:39:08;100157.66;;;14.45;100.00
42111;BME280;27766;52.174;5.456;2023-10-31T12:41:37;100165.50;;;14.37;100.00
42111;BME280;27766;52.174;5.456;2023-10-31T12:44:05;100154.19;;;14.43;100.00
42111;BME280;27766;52.174;5.456;2023-10-31T12:46:32;100161.06;;;14.53;100.00
42111;BME280;27766;52.174;5.456;2023-10-31T12:49:01;100155.91;;;14.45;100.00
42111;BME280;27766;52.174;5.456;2023-10-31T12:51:28;100159.41;;;14.43;100.00
42111;BME280;27766;52.174;5.456;2023-10-31T12:53:56;100159.56;;;14.24;100.00
42111;BME280;27766;52.174;5.456;2023-10-31T12:56:39;100159.59;;;14.18;100.00
42111;BME280;27766;52.174;5.456;2023-10-31T12:59:07;100159.63;;;14.15;100.00
42111;BME280;27766;52.174;5.456;2023-10-31T13:01:35;100168.25;;;14.20;100.00